sensor_id;sensor_type;location;lat;lon;timestamp;temperature;humidity
42201;DHT22;27869;51.442;7.540;2023-08-12T00:01:19;21.00;99.90
42201;DHT22;27869;51.442;7.540;2023-08-12T00:03:46;21.00;99.90
42201;DHT22;27869;51.442;7.540;2023-08-12T00:06:13;21.00;99.90
42201;DHT22;27869;51.442;7.540;2023-08-12T00:08:40;21.00;99.90
42201;DHT22;27869;51.442;7.540;2023-08-12T00:11:07;20.90;99.90
42201;DHT22;27869;51.442;7.540;2023-08-12T00:13:34;20.90;99.90
42201;DHT22;27869;51.442;7.540;2023-08-12T00:16:02;20.90;99.90
42201;DHT22;27869;51.442;7.540;2023-08-12T00:18:29;20.90;99.90
42201;DHT22;27869;51.442;7.540;2023-08-12T00:21:06;20.80;99.90
42201;DHT22;27869;51.442;7.540;2023-08-12T00:23:36;20.80;99.90
42201;DHT22;27869;51.442;7.540;2023-08-12T00:26:03;20.80;99.90
42201;DHT22;27869;51.442;7.540;2023-08-12T00:28:30;20.80;99.90
42201;DHT22;27869;51.442;7.540;2023-08-12T00:30:57;20.80;99.90
42201;DHT22;27869;51.442;7.540;2023-08-12T00:33:25;20.80;99.90
42201;DHT22;27869;51.442;7.540;2023-08-12T00:35:52;20.80;99.90
42201;DHT22;27869;51.442;7.540;2023-08-12T00:38:19;20.80;99.90
42201;DHT22;27869;51.442;7.540;2023-08-12T00:40:46;20.80;99.90
42201;DHT22;27869;51.442;7.540;2023-08-12T00:43:13;20.80;99.90
42201;DHT22;27869;51.442;7.540;2023-08-12T00:45:41;20.80;99.90
42201;DHT22;27869;51.442;7.540;2023-08-12T00:48:08;20.80;99.90
42201;DHT22;27869;51.442;7.540;2023-08-12T00:50:37;20.70;99.90
42201;DHT22;27869;51.442;7.540;2023-08-12T00:53:05;20.70;99.90
42201;DHT22;27869;51.442;7.540;2023-08-12T00:55:33;20.70;99.90
42201;DHT22;27869;51.442;7.540;2023-08-12T00:58:00;20.70;99.90
42201;DHT22;27869;51.442;7.540;2023-08-12T01:00:28;20.70;99.90
42201;DHT22;27869;51.442;7.540;2023-08-12T01:02:56;20.60;99.90
42201;DHT22;27869;51.442;7.540;2023-08-12T01:05:23;20.70;99.90
42201;DHT22;27869;51.442;7.540;2023-08-12T01:07:51;20.70;99.90
42201;DHT22;27869;51.442;7.540;2023-08-12T01:10:20;20.60;99.90
42201;DHT22;27869;51.442;7.540;2023-08-12T01:12:52;20.60;99.90
42201;DHT22;27869;51.442;7.540;2023-08-12T01:15:23;20.60;99.90
42201;DHT22;27869;51.442;7.540;2023-08-12T01:17:53;20.60;99.90
42201;DHT22;27869;51.442;7.540;2023-08-12T01:20:21;20.60;99.90
42201;DHT22;27869;51.442;7.540;2023-08-12T01:22:56;20.60;99.90
42201;DHT22;27869;51.442;7.540;2023-08-12T01:25:25;20.60;99.90
42201;DHT22;27869;51.442;7.540;2023-08-12T01:27:52;20.60;99.90
42201;DHT22;27869;51.442;7.540;2023-08-12T01:30:20;20.60;99.90
42201;DHT22;27869;51.442;7.540;2023-08-12T01:32:53;20.60;99.90
42201;DHT22;27869;51.442;7.540;2023-08-12T01:35:26;20.60;99.90
42201;DHT22;27869;51.442;7.540;2023-08-12T01:37:56;20.60;99.90
42201;DHT22;27869;51.442;7.540;2023-08-12T01:40:26;20.60;99.90
42201;DHT22;27869;51.442;7.540;2023-08-12T01:42:54;20.60;99.90
42201;DHT22;27869;51.442;7.540;2023-08-12T01:45:22;20.60;99.90
42201;DHT22;27869;51.442;7.540;2023-08-12T01:47:49;20.60;99.90
42201;DHT22;27869;51.442;7.540;2023-08-12T01:50:17;20.60;99.90
42201;DHT22;27869;51.442;7.540;2023-08-12T01:52:44;20.60;99.90
42201;DHT22;27869;51.442;7.540;2023-08-12T01:55:11;20.60;99.90
42201;DHT22;27869;51.442;7.540;2023-08-12T01:57:39;20.60;99.90
42201;DHT22;27869;51.442;7.540;2023-08-12T02:00:07;20.50;99.90
42201;DHT22;27869;51.442;7.540;2023-08-12T02:02:34;20.50;99.90
42201;DHT22;27869;51.442;7.540;2023-08-12T02:05:01;20.50;99.90
42201;DHT22;27869;51.442;7.540;2023-08-12T02:07:28;20.50;99.90
42201;DHT22;27869;51.442;7.540;2023-08-12T02:09:55;20.50;99.90
42201;DHT22;27869;51.442;7.540;2023-08-12T02:12:22;20.50;99.90
42201;DHT22;27869;51.442;7.540;2023-08-12T02:14:50;20.50;99.90
42201;DHT22;27869;51.442;7.540;2023-08-12T02:17:17;20.50;99.90
42201;DHT22;27869;51.442;7.540;2023-08-12T02:19:44;20.40;99.90
42201;DHT22;27869;51.442;7.540;2023-08-12T02:22:11;20.40;99.90
42201;DHT22;27869;51.442;7.540;2023-08-12T02:24:38;20.40;99.90
42201;DHT22;27869;51.442;7.540;2023-08-12T02:27:05;20.40;99.90
42201;DHT22;27869;51.442;7.540;2023-08-12T02:29:31;20.40;99.90
42201;DHT22;27869;51.442;7.540;2023-08-12T02:32:00;20.40;99.90
42201;DHT22;27869;51.442;7.540;2023-08-12T02:34:26;20.40;99.90
42201;DHT22;27869;51.442;7.540;2023-08-12T02:36:53;20.40;99.90
42201;DHT22;27869;51.442;7.540;2023-08-12T02:39:20;20.40;99.90
42201;DHT22;27869;51.442;7.540;2023-08-12T02:41:47;20.40;99.90
42201;DHT22;27869;51.442;7.540;2023-08-12T02:44:14;20.40;99.90
42201;DHT22;27869;51.442;7.540;2023-08-12T02:46:41;20.40;99.90
42201;DHT22;27869;51.442;7.540;2023-08-12T02:49:09;20.40;99.90
42201;DHT22;27869;51.442;7.540;2023-08-12T02:51:36;20.40;99.90
42201;DHT22;27869;51.442;7.540;2023-08-12T02:54:03;20.30;99.90
42201;DHT22;27869;51.442;7.540;2023-08-12T02:56:30;20.40;99.90
42201;DHT22;27869;51.442;7.540;2023-08-12T02:58:57;20.30;99.90
42201;DHT22;27869;51.442;7.540;2023-08-12T03:01:24;20.30;99.90
42201;DHT22;27869;51.442;7.540;2023-08-12T03:03:51;20.30;99.90
42201;DHT22;27869;51.442;7.540;2023-08-12T03:06:19;20.30;99.90
42201;DHT22;27869;51.442;7.540;2023-08-12T03:08:46;20.30;99.90
42201;DHT22;27869;51.442;7.540;2023-08-12T03:11:13;20.30;99.90
42201;DHT22;27869;51.442;7.540;2023-08-12T03:13:41;20.30;99.90
42201;DHT22;27869;51.442;7.540;2023-08-12T03:16:11;20.30;99.90
42201;DHT22;27869;51.442;7.540;2023-08-12T03:18:38;20.30;99.90
42201;DHT22;27869;51.442;7.540;2023-08-12T03:21:06;20.20;99.90
42201;DHT22;27869;51.442;7.540;2023-08-12T03:23:35;20.20;99.90
42201;DHT22;27869;51.442;7.540;2023-08-12T03:26:02;20.20;99.90
42201;DHT22;27869;51.442;7.540;2023-08-12T03:28:29;20.20;99.90
42201;DHT22;27869;51.442;7.540;2023-08-12T03:30:56;20.20;99.90
42201;DHT22;27869;51.442;7.540;2023-08-12T03:33:23;20.20;99.90
42201;DHT22;27869;51.442;7.540;2023-08-12T03:35:50;20.20;99.90
42201;DHT22;27869;51.442;7.540;2023-08-12T03:38:17;20.20;99.90
42201;DHT22;27869;51.442;7.540;2023-08-12T03:40:45;20.20;99.90
42201;DHT22;27869;51.442;7.540;2023-08-12T03:43:12;20.10;99.90
42201;DHT22;27869;51.442;7.540;2023-08-12T03:45:40;20.10;99.90
42201;DHT22;27869;51.442;7.540;2023-08-12T03:48:07;20.10;99.90
42201;DHT22;27869;51.442;7.540;2023-08-12T03:50:34;20.00;99.90
42201;DHT22;27869;51.442;7.540;2023-08-12T03:53:01;20.00;99.90
42201;DHT22;27869;51.442;7.540;2023-08-12T03:55:30;20.00;99.90
42201;DHT22;27869;51.442;7.540;2023-08-12T03:57:58;20.00;99.90
42201;DHT22;27869;51.442;7.540;2023-08-12T04:00:25;20.00;99.90
42201;DHT22;27869;51.442;7.540;2023-08-12T04:02:52;20.00;99.90
42201;DHT22;27869;51.442;7.540;2023-08-12T04:05:19;19.90;99.90
42201;DHT22;27869;51.442;7.540;2023-08-12T04:07:45;19.90;99.90
42201;DHT22;27869;51.442;7.540;2023-08-12T04:10:12;19.90;99.90
42201;DHT22;27869;51.442;7.540;2023-08-12T04:12:40;19.90;99.90
42201;DHT22;27869;51.442;7.540;2023-08-12T04:15:09;19.90;99.90
42201;DHT22;27869;51.442;7.540;2023-08-12T04:17:36;19.80;99.90
42201;DHT22;27869;51.442;7.540;2023-08-12T04:20:06;19.90;99.90
42201;DHT22;27869;51.442;7.540;2023-08-12T04:22:33;19.90;99.90
42201;DHT22;27869;51.442;7.540;2023-08-12T04:25:00;19.80;99.90
42201;DHT22;27869;51.442;7.540;2023-08-12T04:27:27;19.80;99.90
42201;DHT22;27869;51.442;7.540;2023-08-12T04:29:54;19.80;99.90
42201;DHT22;27869;51.442;7.540;2023-08-12T04:32:22;19.80;99.90
42201;DHT22;27869;51.442;7.540;2023-08-12T04:34:49;19.80;99.90
42201;DHT22;27869;51.442;7.540;2023-08-12T04:37:16;19.80;99.90
42201;DHT22;27869;51.442;7.540;2023-08-12T04:39:42;19.80;99.90
42201;DHT22;27869;51.442;7.540;2023-08-12T04:42:09;19.80;99.90
42201;DHT22;27869;51.442;7.540;2023-08-12T04:44:36;19.80;99.90
42201;DHT22;27869;51.442;7.540;2023-08-12T04:47:03;19.80;99.90
42201;DHT22;27869;51.442;7.540;2023-08-12T04:49:34;19.80;99.90
42201;DHT22;27869;51.442;7.540;2023-08-12T04:52:01;19.80;99.90
42201;DHT22;27869;51.442;7.540;2023-08-12T04:54:28;19.80;99.90
42201;DHT22;27869;51.442;7.540;2023-08-12T04:56:55;19.80;99.90
42201;DHT22;27869;51.442;7.540;2023-08-12T04:59:22;19.80;99.90
42201;DHT22;27869;51.442;7.540;2023-08-12T05:01:49;19.80;99.90
42201;DHT22;27869;51.442;7.540;2023-08-12T05:04:16;19.80;99.90
42201;DHT22;27869;51.442;7.540;2023-08-12T05:06:44;19.80;99.90
42201;DHT22;27869;51.442;7.540;2023-08-12T05:09:11;19.90;99.90
42201;DHT22;27869;51.442;7.540;2023-08-12T05:11:38;19.80;99.90
42201;DHT22;27869;51.442;7.540;2023-08-12T05:14:04;19.90;99.90
42201;DHT22;27869;51.442;7.540;2023-08-12T05:16:31;19.80;99.90
42201;DHT22;27869;51.442;7.540;2023-08-12T05:18:58;19.90;99.90
42201;DHT22;27869;51.442;7.540;2023-08-12T05:21:25;19.90;99.90
42201;DHT22;27869;51.442;7.540;2023-08-12T05:23:53;19.90;99.90
42201;DHT22;27869;51.442;7.540;2023-08-12T05:26:20;19.90;99.90
42201;DHT22;27869;51.442;7.540;2023-08-12T05:28:47;19.90;99.90
42201;DHT22;27869;51.442;7.540;2023-08-12T05:31:14;19.90;99.90
42201;DHT22;27869;51.442;7.540;2023-08-12T05:33:41;19.90;99.90
42201;DHT22;27869;51.442;7.540;2023-08-12T05:36:08;19.90;99.90
42201;DHT22;27869;51.442;7.540;2023-08-12T05:38:35;20.00;99.90
42201;DHT22;27869;51.442;7.540;2023-08-12T05:41:03;20.00;99.90
42201;DHT22;27869;51.442;7.540;2023-08-12T05:43:32;20.00;99.90
42201;DHT22;27869;51.442;7.540;2023-08-12T05:45:59;20.00;99.90
42201;DHT22;27869;51.442;7.540;2023-08-12T05:48:26;20.00;99.90
42201;DHT22;27869;51.442;7.540;2023-08-12T05:50:53;20.00;99.90
42201;DHT22;27869;51.442;7.540;2023-08-12T05:53:21;20.00;99.90
42201;DHT22;27869;51.442;7.540;2023-08-12T05:55:48;20.10;99.90
42201;DHT22;27869;51.442;7.540;2023-08-12T05:58:16;20.10;99.90
42201;DHT22;27869;51.442;7.540;2023-08-12T06:00:43;20.10;99.90
42201;DHT22;27869;51.442;7.540;2023-08-12T06:03:11;20.10;99.90
42201;DHT22;27869;51.442;7.540;2023-08-12T06:05:38;20.10;99.90
42201;DHT22;27869;51.442;7.540;2023-08-12T06:08:05;20.10;99.90
42201;DHT22;27869;51.442;7.540;2023-08-12T06:10:33;20.20;99.90
42201;DHT22;27869;51.442;7.540;2023-08-12T06:13:00;20.20;99.90
42201;DHT22;27869;51.442;7.540;2023-08-12T06:15:28;20.20;99.90
42201;DHT22;27869;51.442;7.540;2023-08-12T06:17:56;20.20;99.90
42201;DHT22;27869;51.442;7.540;2023-08-12T06:20:23;20.20;99.90
42201;DHT22;27869;51.442;7.540;2023-08-12T06:22:50;20.20;99.90
42201;DHT22;27869;51.442;7.540;2023-08-12T06:25:17;20.20;99.90
42201;DHT22;27869;51.442;7.540;2023-08-12T06:27:44;20.20;99.90
42201;DHT22;27869;51.442;7.540;2023-08-12T06:30:12;20.20;99.90
42201;DHT22;27869;51.442;7.540;2023-08-12T06:32:41;20.30;99.90
42201;DHT22;27869;51.442;7.540;2023-08-12T06:35:08;20.20;99.90
42201;DHT22;27869;51.442;7.540;2023-08-12T06:37:35;20.30;99.90
42201;DHT22;27869;51.442;7.540;2023-08-12T06:40:03;20.30;99.90
42201;DHT22;27869;51.442;7.540;2023-08-12T06:42:30;20.30;99.90
42201;DHT22;27869;51.442;7.540;2023-08-12T06:44:58;20.30;99.90
42201;DHT22;27869;51.442;7.540;2023-08-12T06:47:25;20.30;99.90
42201;DHT22;27869;51.442;7.540;2023-08-12T06:49:56;20.30;99.90
42201;DHT22;27869;51.442;7.540;2023-08-12T06:52:23;20.30;99.90
42201;DHT22;27869;51.442;7.540;2023-08-12T06:54:50;20.30;99.90
42201;DHT22;27869;51.442;7.540;2023-08-12T06:57:17;20.30;99.90
42201;DHT22;27869;51.442;7.540;2023-08-12T06:59:43;20.30;99.90
42201;DHT22;27869;51.442;7.540;2023-08-12T07:02:11;20.30;99.90
42201;DHT22;27869;51.442;7.540;2023-08-12T07:04:38;20.30;99.90
42201;DHT22;27869;51.442;7.540;2023-08-12T07:07:06;20.30;99.90
42201;DHT22;27869;51.442;7.540;2023-08-12T07:09:33;20.30;99.90
42201;DHT22;27869;51.442;7.540;2023-08-12T07:12:00;20.20;99.90
42201;DHT22;27869;51.442;7.540;2023-08-12T07:14:27;20.30;99.90
42201;DHT22;27869;51.442;7.540;2023-08-12T07:16:55;20.20;99.90
42201;DHT22;27869;51.442;7.540;2023-08-12T07:19:22;20.20;99.90
42201;DHT22;27869;51.442;7.540;2023-08-12T07:21:49;20.30;99.90
42201;DHT22;27869;51.442;7.540;2023-08-12T07:24:17;20.20;99.90
42201;DHT22;27869;51.442;7.540;2023-08-12T07:26:44;20.20;99.90
42201;DHT22;27869;51.442;7.540;2023-08-12T07:29:11;20.30;99.90
42201;DHT22;27869;51.442;7.540;2023-08-12T07:31:38;20.20;99.90
42201;DHT22;27869;51.442;7.540;2023-08-12T07:34:05;20.20;99.90
42201;DHT22;27869;51.442;7.540;2023-08-12T07:36:32;20.20;99.90
42201;DHT22;27869;51.442;7.540;2023-08-12T07:38:59;20.20;99.90
42201;DHT22;27869;51.442;7.540;2023-08-12T07:41:27;20.20;99.90
42201;DHT22;27869;51.442;7.540;2023-08-12T07:43:54;20.20;99.90
42201;DHT22;27869;51.442;7.540;2023-08-12T07:46:21;20.20;99.90
42201;DHT22;27869;51.442;7.540;2023-08-12T07:48:48;20.20;99.90
42201;DHT22;27869;51.442;7.540;2023-08-12T07:51:15;20.30;99.90
42201;DHT22;27869;51.442;7.540;2023-08-12T07:53:41;20.30;99.90
42201;DHT22;27869;51.442;7.540;2023-08-12T07:56:08;20.30;99.90
42201;DHT22;27869;51.442;7.540;2023-08-12T07:58:37;20.40;99.90
42201;DHT22;27869;51.442;7.540;2023-08-12T08:01:04;20.40;99.90
42201;DHT22;27869;51.442;7.540;2023-08-12T08:03:31;20.50;99.90
42201;DHT22;27869;51.442;7.540;2023-08-12T08:05:58;20.50;99.90
42201;DHT22;27869;51.442;7.540;2023-08-12T08:08:25;20.50;99.90
42201;DHT22;27869;51.442;7.540;2023-08-12T08:10:52;20.60;99.90
42201;DHT22;27869;51.442;7.540;2023-08-12T08:13:19;20.60;99.90
42201;DHT22;27869;51.442;7.540;2023-08-12T08:15:47;20.70;99.90
42201;DHT22;27869;51.442;7.540;2023-08-12T08:18:14;20.70;99.90
42201;DHT22;27869;51.442;7.540;2023-08-12T08:20:42;20.70;99.90
42201;DHT22;27869;51.442;7.540;2023-08-12T08:23:09;20.80;99.90
42201;DHT22;27869;51.442;7.540;2023-08-12T08:25:35;20.80;99.90
42201;DHT22;27869;51.442;7.540;2023-08-12T08:28:02;20.80;99.90
42201;DHT22;27869;51.442;7.540;2023-08-12T08:30:29;20.90;99.90
42201;DHT22;27869;51.442;7.540;2023-08-12T08:32:58;21.00;99.90
42201;DHT22;27869;51.442;7.540;2023-08-12T08:35:24;21.00;99.90
42201;DHT22;27869;51.442;7.540;2023-08-12T08:37:51;21.10;99.90
42201;DHT22;27869;51.442;7.540;2023-08-12T08:40:18;21.10;99.90
42201;DHT22;27869;51.442;7.540;2023-08-12T08:42:47;21.10;99.90
42201;DHT22;27869;51.442;7.540;2023-08-12T08:45:18;21.20;99.90
42201;DHT22;27869;51.442;7.540;2023-08-12T08:47:47;21.20;99.90
42201;DHT22;27869;51.442;7.540;2023-08-12T08:50:16;21.30;99.90
42201;DHT22;27869;51.442;7.540;2023-08-12T08:52:47;21.30;99.90
42201;DHT22;27869;51.442;7.540;2023-08-12T08:55:15;21.40;99.90
42201;DHT22;27869;51.442;7.540;2023-08-12T08:57:43;21.40;99.90
42201;DHT22;27869;51.442;7.540;2023-08-12T09:00:11;21.40;99.90
42201;DHT22;27869;51.442;7.540;2023-08-12T09:02:40;21.40;99.90
42201;DHT22;27869;51.442;7.540;2023-08-12T09:05:08;21.40;99.90
42201;DHT22;27869;51.442;7.540;2023-08-12T09:07:37;21.40;99.90
42201;DHT22;27869;51.442;7.540;2023-08-12T09:10:05;21.50;99.90
42201;DHT22;27869;51.442;7.540;2023-08-12T09:12:32;21.60;99.90
42201;DHT22;27869;51.442;7.540;2023-08-12T09:14:59;21.60;99.90
42201;DHT22;27869;51.442;7.540;2023-08-12T09:17:26;21.70;99.90
42201;DHT22;27869;51.442;7.540;2023-08-12T09:19:53;21.70;99.90
42201;DHT22;27869;51.442;7.540;2023-08-12T09:22:24;21.70;99.90
42201;DHT22;27869;51.442;7.540;2023-08-12T09:24:56;21.70;99.90
42201;DHT22;27869;51.442;7.540;2023-08-12T09:27:23;21.70;99.90
42201;DHT22;27869;51.442;7.540;2023-08-12T09:29:49;21.70;99.90
42201;DHT22;27869;51.442;7.540;2023-08-12T09:32:18;21.70;99.90
42201;DHT22;27869;51.442;7.540;2023-08-12T09:34:46;21.70;99.90
42201;DHT22;27869;51.442;7.540;2023-08-12T09:37:14;21.60;99.90
42201;DHT22;27869;51.442;7.540;2023-08-12T09:39:42;21.70;99.90
42201;DHT22;27869;51.442;7.540;2023-08-12T09:42:11;21.70;99.90
42201;DHT22;27869;51.442;7.540;2023-08-12T09:44:38;21.70;99.90
42201;DHT22;27869;51.442;7.540;2023-08-12T09:47:06;21.70;99.90
42201;DHT22;27869;51.442;7.540;2023-08-12T09:49:33;21.70;99.90
42201;DHT22;27869;51.442;7.540;2023-08-12T09:52:01;21.80;99.90
42201;DHT22;27869;51.442;7.540;2023-08-12T09:54:31;21.80;99.90
42201;DHT22;27869;51.442;7.540;2023-08-12T09:57:02;21.80;99.90
42201;DHT22;27869;51.442;7.540;2023-08-12T09:59:32;21.90;99.90
42201;DHT22;27869;51.442;7.540;2023-08-12T10:02:01;22.00;99.90
42201;DHT22;27869;51.442;7.540;2023-08-12T10:04:33;22.20;99.90
42201;DHT22;27869;51.442;7.540;2023-08-12T10:07:02;22.30;99.90
42201;DHT22;27869;51.442;7.540;2023-08-12T10:09:30;22.40;99.90
42201;DHT22;27869;51.442;7.540;2023-08-12T10:11:57;22.40;99.90
42201;DHT22;27869;51.442;7.540;2023-08-12T10:14:25;22.50;99.90
42201;DHT22;27869;51.442;7.540;2023-08-12T10:16:55;22.50;99.90
42201;DHT22;27869;51.442;7.540;2023-08-12T10:19:23;22.50;99.90
42201;DHT22;27869;51.442;7.540;2023-08-12T10:21:55;22.60;99.90
42201;DHT22;27869;51.442;7.540;2023-08-12T10:24:23;22.60;99.90
42201;DHT22;27869;51.442;7.540;2023-08-12T10:26:51;22.60;99.90
42201;DHT22;27869;51.442;7.540;2023-08-12T10:29:18;22.60;99.90
42201;DHT22;27869;51.442;7.540;2023-08-12T10:31:46;22.60;99.90
42201;DHT22;27869;51.442;7.540;2023-08-12T10:34:22;22.60;99.90
42201;DHT22;27869;51.442;7.540;2023-08-12T10:36:53;22.50;99.90
42201;DHT22;27869;51.442;7.540;2023-08-12T10:39:24;22.60;99.90
42201;DHT22;27869;51.442;7.540;2023-08-12T10:41:51;22.50;99.90
42201;DHT22;27869;51.442;7.540;2023-08-12T10:44:21;22.60;99.90
42201;DHT22;27869;51.442;7.540;2023-08-12T10:46:52;22.60;99.90
42201;DHT22;27869;51.442;7.540;2023-08-12T10:49:21;22.60;99.90
42201;DHT22;27869;51.442;7.540;2023-08-12T10:51:49;22.60;99.90
42201;DHT22;27869;51.442;7.540;2023-08-12T10:54:20;22.60;99.90
42201;DHT22;27869;51.442;7.540;2023-08-12T10:57:09;22.60;99.90
42201;DHT22;27869;51.442;7.540;2023-08-12T10:59:51;22.70;99.90
42201;DHT22;27869;51.442;7.540;2023-08-12T11:02:20;22.70;99.90
42201;DHT22;27869;51.442;7.540;2023-08-12T11:04:52;22.80;99.90
42201;DHT22;27869;51.442;7.540;2023-08-12T11:07:20;22.80;99.90
42201;DHT22;27869;51.442;7.540;2023-08-12T11:09:51;22.90;99.90
42201;DHT22;27869;51.442;7.540;2023-08-12T11:12:27;22.90;99.90
42201;DHT22;27869;51.442;7.540;2023-08-12T11:14:54;23.00;99.90
42201;DHT22;27869;51.442;7.540;2023-08-12T11:17:29;23.10;99.90
42201;DHT22;27869;51.442;7.540;2023-08-12T11:19:57;23.10;99.90
42201;DHT22;27869;51.442;7.540;2023-08-12T11:22:24;23.20;99.90
42201;DHT22;27869;51.442;7.540;2023-08-12T11:24:52;23.20;99.90
42201;DHT22;27869;51.442;7.540;2023-08-12T11:27:19;23.20;99.90
42201;DHT22;27869;51.442;7.540;2023-08-12T11:29:46;23.30;99.90
42201;DHT22;27869;51.442;7.540;2023-08-12T11:32:13;23.30;99.90
42201;DHT22;27869;51.442;7.540;2023-08-12T11:34:40;23.40;99.90
42201;DHT22;27869;51.442;7.540;2023-08-12T11:37:08;23.30;99.90
42201;DHT22;27869;51.442;7.540;2023-08-12T11:39:35;23.30;99.90
42201;DHT22;27869;51.442;7.540;2023-08-12T11:42:03;23.40;99.90
42201;DHT22;27869;51.442;7.540;2023-08-12T11:44:30;23.40;99.90
42201;DHT22;27869;51.442;7.540;2023-08-12T11:46:57;23.30;99.90
42201;DHT22;27869;51.442;7.540;2023-08-12T11:49:24;23.30;99.90
42201;DHT22;27869;51.442;7.540;2023-08-12T11:51:51;23.30;99.90
42201;DHT22;27869;51.442;7.540;2023-08-12T11:54:19;23.30;99.90
42201;DHT22;27869;51.442;7.540;2023-08-12T11:56:46;23.30;99.90
42201;DHT22;27869;51.442;7.540;2023-08-12T11:59:13;23.30;99.90
42201;DHT22;27869;51.442;7.540;2023-08-12T12:01:40;23.30;99.90
42201;DHT22;27869;51.442;7.540;2023-08-12T12:04:11;23.30;99.90
42201;DHT22;27869;51.442;7.540;2023-08-12T12:06:38;23.20;99.90
42201;DHT22;27869;51.442;7.540;2023-08-12T12:09:06;23.20;99.90
42201;DHT22;27869;51.442;7.540;2023-08-12T12:11:37;23.10;99.90
42201;DHT22;27869;51.442;7.540;2023-08-12T12:14:04;22.80;99.90
42201;DHT22;27869;51.442;7.540;2023-08-12T12:16:38;22.60;99.90
42201;DHT22;27869;51.442;7.540;2023-08-12T12:19:09;22.50;99.90
42201;DHT22;27869;51.442;7.540;2023-08-12T12:21:40;22.40;99.90
42201;DHT22;27869;51.442;7.540;2023-08-12T12:24:07;22.30;99.90
42201;DHT22;27869;51.442;7.540;2023-08-12T12:26:36;22.20;99.90
42201;DHT22;27869;51.442;7.540;2023-08-12T12:29:03;22.10;99.90
42201;DHT22;27869;51.442;7.540;2023-08-12T12:31:32;22.10;99.90
42201;DHT22;27869;51.442;7.540;2023-08-12T12:33:59;22.10;99.90
42201;DHT22;27869;51.442;7.540;2023-08-12T12:36:26;22.10;99.90
42201;DHT22;27869;51.442;7.540;2023-08-12T12:38:53;22.10;99.90
42201;DHT22;27869;51.442;7.540;2023-08-12T12:41:20;22.20;99.90
42201;DHT22;27869;51.442;7.540;2023-08-12T12:43:48;22.10;99.90
42201;DHT22;27869;51.442;7.540;2023-08-12T12:46:15;22.20;99.90
42201;DHT22;27869;51.442;7.540;2023-08-12T12:48:42;22.20;99.90
42201;DHT22;27869;51.442;7.540;2023-08-12T12:51:09;22.20;99.90
42201;DHT22;27869;51.442;7.540;2023-08-12T12:53:36;22.30;99.90
42201;DHT22;27869;51.442;7.540;2023-08-12T12:56:03;22.30;99.90
42201;DHT22;27869;51.442;7.540;2023-08-12T12:58:31;22.30;99.90
42201;DHT22;27869;51.442;7.540;2023-08-12T13:01:00;22.40;99.90
42201;DHT22;27869;51.442;7.540;2023-08-12T13:03:27;22.40;99.90
42201;DHT22;27869;51.442;7.540;2023-08-12T13:05:54;22.40;99.90
42201;DHT22;27869;51.442;7.540;2023-08-12T13:08:21;22.40;99.90
42201;DHT22;27869;51.442;7.540;2023-08-12T13:10:48;22.40;99.90
42201;DHT22;27869;51.442;7.540;2023-08-12T13:13:15;22.40;99.90
42201;DHT22;27869;51.442;7.540;2023-08-12T13:15:42;22.40;99.90
42201;DHT22;27869;51.442;7.540;2023-08-12T13:18:10;22.50;99.90
42201;DHT22;27869;51.442;7.540;2023-08-12T13:20:37;22.50;99.90
42201;DHT22;27869;51.442;7.540;2023-08-12T13:23:04;22.50;99.90
42201;DHT22;27869;51.442;7.540;2023-08-12T13:25:33;22.50;99.90
42201;DHT22;27869;51.442;7.540;2023-08-12T13:28:00;22.50;99.90
42201;DHT22;27869;51.442;7.540;2023-08-12T13:30:28;22.60;99.90
42201;DHT22;27869;51.442;7.540;2023-08-12T13:32:55;22.60;99.90
42201;DHT22;27869;51.442;7.540;2023-08-12T13:35:24;22.60;99.90
42201;DHT22;27869;51.442;7.540;2023-08-12T13:37:50;22.60;99.90
42201;DHT22;27869;51.442;7.540;2023-08-12T13:40:17;22.60;99.90
42201;DHT22;27869;51.442;7.540;2023-08-12T13:42:44;22.60;99.90
42201;DHT22;27869;51.442;7.540;2023-08-12T13:45:12;22.50;99.90
42201;DHT22;27869;51.442;7.540;2023-08-12T13:47:39;22.30;99.90
42201;DHT22;27869;51.442;7.540;2023-08-12T13:50:07;22.20;99.90
42201;DHT22;27869;51.442;7.540;2023-08-12T13:52:35;22.10;99.90
42201;DHT22;27869;51.442;7.540;2023-08-12T13:55:03;22.00;99.90
42201;DHT22;27869;51.442;7.540;2023-08-12T13:57:30;21.90;99.90
42201;DHT22;27869;51.442;7.540;2023-08-12T13:59:57;21.80;99.90
42201;DHT22;27869;51.442;7.540;2023-08-12T14:02:24;21.70;99.90
42201;DHT22;27869;51.442;7.540;2023-08-12T14:04:51;21.70;99.90
42201;DHT22;27869;51.442;7.540;2023-08-12T14:07:18;21.70;99.90
42201;DHT22;27869;51.442;7.540;2023-08-12T14:09:47;21.70;99.90
42201;DHT22;27869;51.442;7.540;2023-08-12T14:12:15;21.70;99.90
42201;DHT22;27869;51.442;7.540;2023-08-12T14:14:41;21.70;99.90
42201;DHT22;27869;51.442;7.540;2023-08-12T14:17:08;21.60;99.90
42201;DHT22;27869;51.442;7.540;2023-08-12T14:19:39;21.60;99.90
42201;DHT22;27869;51.442;7.540;2023-08-12T14:22:07;21.60;99.90
42201;DHT22;27869;51.442;7.540;2023-08-12T14:24:34;21.50;99.90
42201;DHT22;27869;51.442;7.540;2023-08-12T14:27:02;21.50;99.90
42201;DHT22;27869;51.442;7.540;2023-08-12T14:29:30;21.60;99.90
42201;DHT22;27869;51.442;7.540;2023-08-12T14:31:57;21.60;99.90
42201;DHT22;27869;51.442;7.540;2023-08-12T14:34:24;21.60;99.90
42201;DHT22;27869;51.442;7.540;2023-08-12T14:36:51;21.60;99.90
42201;DHT22;27869;51.442;7.540;2023-08-12T14:39:18;21.50;99.90
42201;DHT22;27869;51.442;7.540;2023-08-12T14:41:45;21.50;99.90
42201;DHT22;27869;51.442;7.540;2023-08-12T14:44:14;21.50;99.90
42201;DHT22;27869;51.442;7.540;2023-08-12T14:46:40;21.50;99.90
42201;DHT22;27869;51.442;7.540;2023-08-12T14:49:07;21.50;99.90
42201;DHT22;27869;51.442;7.540;2023-08-12T14:51:34;21.50;99.90
42201;DHT22;27869;51.442;7.540;2023-08-12T14:54:02;21.60;99.90
42201;DHT22;27869;51.442;7.540;2023-08-12T14:56:29;21.60;99.90
42201;DHT22;27869;51.442;7.540;2023-08-12T14:58:56;21.60;99.90
42201;DHT22;27869;51.442;7.540;2023-08-12T15:01:24;21.60;99.90
42201;DHT22;27869;51.442;7.540;2023-08-12T15:03:53;21.60;99.90
42201;DHT22;27869;51.442;7.540;2023-08-12T15:06:21;21.70;99.90
42201;DHT22;27869;51.442;7.540;2023-08-12T15:08:48;21.70;99.90
42201;DHT22;27869;51.442;7.540;2023-08-12T15:11:15;21.70;99.90
42201;DHT22;27869;51.442;7.540;2023-08-12T15:13:42;21.70;99.90
42201;DHT22;27869;51.442;7.540;2023-08-12T15:16:09;21.70;99.90
42201;DHT22;27869;51.442;7.540;2023-08-12T15:18:38;21.70;99.90
42201;DHT22;27869;51.442;7.540;2023-08-12T15:21:05;21.70;99.90
42201;DHT22;27869;51.442;7.540;2023-08-12T15:23:32;21.70;99.90
42201;DHT22;27869;51.442;7.540;2023-08-12T15:26:00;21.70;99.90
42201;DHT22;27869;51.442;7.540;2023-08-12T15:28:28;21.80;99.90
42201;DHT22;27869;51.442;7.540;2023-08-12T15:30:55;21.80;99.90
42201;DHT22;27869;51.442;7.540;2023-08-12T15:33:22;21.70;99.90